sensor_id;sensor_type;location;lat;lon;timestamp;P1;durP1;ratioP1;P2;durP2;ratioP2
44480;SDS011;30184;42.018;23.670;2022-11-04T00:00:34;97.47;;;35.83;;
44480;SDS011;30184;42.018;23.670;2022-11-04T00:03:03;94.07;;;34.58;;
44480;SDS011;30184;42.018;23.670;2022-11-04T00:05:32;57.63;;;25.25;;
44480;SDS011;30184;42.018;23.670;2022-11-04T00:08:01;57.95;;;27.50;;
44480;SDS011;30184;42.018;23.670;2022-11-04T00:10:52;60.85;;;29.17;;
44480;SDS011;30184;42.018;23.670;2022-11-04T00:13:39;50.67;;;23.58;;
44480;SDS011;30184;42.018;23.670;2022-11-04T00:16:09;32.60;;;15.13;;
44480;SDS011;30184;42.018;23.670;2022-11-04T00:18:55;25.40;;;10.45;;
44480;SDS011;30184;42.018;23.670;2022-11-04T00:21:25;28.15;;;11.27;;
44480;SDS011;30184;42.018;23.670;2022-11-04T00:24:12;51.22;;;20.73;;
44480;SDS011;30184;42.018;23.670;2022-11-04T00:26:59;38.08;;;18.33;;
44480;SDS011;30184;42.018;23.670;2022-11-04T00:29:45;40.97;;;14.82;;
44480;SDS011;30184;42.018;23.670;2022-11-04T00:32:16;33.15;;;13.75;;
44480;SDS011;30184;42.018;23.670;2022-11-04T00:35:02;21.83;;;10.43;;
44480;SDS011;30184;42.018;23.670;2022-11-04T00:37:34;29.98;;;11.27;;
44480;SDS011;30184;42.018;23.670;2022-11-04T00:40:07;31.92;;;12.40;;
44480;SDS011;30184;42.018;23.670;2022-11-04T00:42:37;28.17;;;11.80;;
44480;SDS011;30184;42.018;23.670;2022-11-04T00:45:07;20.13;;;10.20;;
44480;SDS011;30184;42.018;23.670;2022-11-04T00:47:38;20.50;;;9.98;;
44480;SDS011;30184;42.018;23.670;2022-11-04T00:50:10;24.90;;;10.43;;
44480;SDS011;30184;42.018;23.670;2022-11-04T00:52:39;26.75;;;9.68;;
44480;SDS011;30184;42.018;23.670;2022-11-04T00:55:08;24.35;;;10.05;;
44480;SDS011;30184;42.018;23.670;2022-11-04T00:57:38;28.10;;;10.25;;
44480;SDS011;30184;42.018;23.670;2022-11-04T01:00:07;27.20;;;10.05;;
44480;SDS011;30184;42.018;23.670;2022-11-04T01:02:39;29.30;;;14.85;;
44480;SDS011;30184;42.018;23.670;2022-11-04T01:05:08;74.50;;;36.38;;
44480;SDS011;30184;42.018;23.670;2022-11-04T01:07:37;59.75;;;31.45;;
44480;SDS011;30184;42.018;23.670;2022-11-04T01:10:09;47.85;;;23.23;;
44480;SDS011;30184;42.018;23.670;2022-11-04T01:12:39;33.80;;;12.10;;
44480;SDS011;30184;42.018;23.670;2022-11-04T01:15:08;26.08;;;10.88;;
44480;SDS011;30184;42.018;23.670;2022-11-04T01:17:39;25.55;;;11.10;;
44480;SDS011;30184;42.018;23.670;2022-11-04T01:20:09;30.33;;;11.15;;
44480;SDS011;30184;42.018;23.670;2022-11-04T01:22:39;22.80;;;11.18;;
44480;SDS011;30184;42.018;23.670;2022-11-04T01:25:08;25.00;;;11.98;;
44480;SDS011;30184;42.018;23.670;2022-11-04T01:27:38;40.65;;;14.00;;
44480;SDS011;30184;42.018;23.670;2022-11-04T01:30:07;33.38;;;14.05;;
44480;SDS011;30184;42.018;23.670;2022-11-04T01:32:39;32.03;;;11.18;;
44480;SDS011;30184;42.018;23.670;2022-11-04T01:35:08;23.67;;;9.73;;
44480;SDS011;30184;42.018;23.670;2022-11-04T01:37:37;23.90;;;10.90;;
44480;SDS011;30184;42.018;23.670;2022-11-04T01:40:07;22.27;;;9.98;;
44480;SDS011;30184;42.018;23.670;2022-11-04T01:42:36;29.00;;;10.80;;
44480;SDS011;30184;42.018;23.670;2022-11-04T01:45:07;31.92;;;12.48;;
44480;SDS011;30184;42.018;23.670;2022-11-04T01:47:43;31.83;;;11.57;;
44480;SDS011;30184;42.018;23.670;2022-11-04T01:50:18;30.40;;;11.55;;
44480;SDS011;30184;42.018;23.670;2022-11-04T01:52:51;33.78;;;12.73;;
44480;SDS011;30184;42.018;23.670;2022-11-04T01:55:24;26.40;;;11.07;;
44480;SDS011;30184;42.018;23.670;2022-11-04T01:57:55;27.75;;;11.10;;
44480;SDS011;30184;42.018;23.670;2022-11-04T02:00:30;24.13;;;10.60;;
44480;SDS011;30184;42.018;23.670;2022-11-04T02:03:02;31.08;;;12.70;;
44480;SDS011;30184;42.018;23.670;2022-11-04T02:05:36;27.80;;;11.85;;
44480;SDS011;30184;42.018;23.670;2022-11-04T02:08:07;34.78;;;12.68;;
44480;SDS011;30184;42.018;23.670;2022-11-04T02:10:38;29.50;;;11.18;;
44480;SDS011;30184;42.018;23.670;2022-11-04T02:13:11;35.88;;;12.90;;
44480;SDS011;30184;42.018;23.670;2022-11-04T02:15:40;26.00;;;10.32;;
44480;SDS011;30184;42.018;23.670;2022-11-04T02:18:20;41.10;;;12.50;;
44480;SDS011;30184;42.018;23.670;2022-11-04T02:21:12;26.27;;;10.80;;
44480;SDS011;30184;42.018;23.670;2022-11-04T02:24:03;31.02;;;10.95;;
44480;SDS011;30184;42.018;23.670;2022-11-04T02:29:50;27.48;;;11.95;;
44480;SDS011;30184;42.018;23.670;2022-11-04T02:32:39;22.58;;;11.02;;
44480;SDS011;30184;42.018;23.670;2022-11-04T02:35:21;29.85;;;11.48;;
44480;SDS011;30184;42.018;23.670;2022-11-04T02:37:56;30.45;;;12.20;;
44480;SDS011;30184;42.018;23.670;2022-11-04T02:40:38;24.73;;;10.77;;
44480;SDS011;30184;42.018;23.670;2022-11-04T02:43:15;30.67;;;12.23;;
44480;SDS011;30184;42.018;23.670;2022-11-04T02:45:54;25.10;;;11.32;;
44480;SDS011;30184;42.018;23.670;2022-11-04T02:48:34;28.75;;;11.30;;
44480;SDS011;30184;42.018;23.670;2022-11-04T02:51:08;29.10;;;12.13;;
44480;SDS011;30184;42.018;23.670;2022-11-04T02:53:45;22.02;;;10.93;;
44480;SDS011;30184;42.018;23.670;2022-11-04T02:56:18;28.85;;;10.88;;
44480;SDS011;30184;42.018;23.670;2022-11-04T02:58:51;25.92;;;11.68;;
44480;SDS011;30184;42.018;23.670;2022-11-04T03:01:24;32.60;;;13.13;;
44480;SDS011;30184;42.018;23.670;2022-11-04T03:03:58;27.92;;;12.57;;
44480;SDS011;30184;42.018;23.670;2022-11-04T03:06:31;31.83;;;12.02;;
44480;SDS011;30184;42.018;23.670;2022-11-04T03:09:03;32.58;;;12.88;;
44480;SDS011;30184;42.018;23.670;2022-11-04T03:11:32;34.45;;;15.00;;
44480;SDS011;30184;42.018;23.670;2022-11-04T03:14:04;29.27;;;12.07;;
44480;SDS011;30184;42.018;23.670;2022-11-04T03:16:37;28.67;;;11.27;;
44480;SDS011;30184;42.018;23.670;2022-11-04T03:19:11;19.98;;;10.27;;
44480;SDS011;30184;42.018;23.670;2022-11-04T03:21:47;25.02;;;11.57;;
44480;SDS011;30184;42.018;23.670;2022-11-04T03:24:22;23.70;;;12.40;;
44480;SDS011;30184;42.018;23.670;2022-11-04T03:26:54;26.38;;;13.10;;
44480;SDS011;30184;42.018;23.670;2022-11-04T03:29:28;23.25;;;10.68;;
44480;SDS011;30184;42.018;23.670;2022-11-04T03:32:04;35.03;;;13.75;;
44480;SDS011;30184;42.018;23.670;2022-11-04T03:34:40;41.35;;;16.70;;
44480;SDS011;30184;42.018;23.670;2022-11-04T03:37:09;38.35;;;16.52;;
44480;SDS011;30184;42.018;23.670;2022-11-04T03:39:38;30.65;;;13.68;;
44480;SDS011;30184;42.018;23.670;2022-11-04T03:42:08;32.83;;;12.98;;
44480;SDS011;30184;42.018;23.670;2022-11-04T03:44:47;32.47;;;11.85;;
44480;SDS011;30184;42.018;23.670;2022-11-04T03:47:20;32.17;;;12.55;;
44480;SDS011;30184;42.018;23.670;2022-11-04T03:49:53;26.13;;;11.35;;
44480;SDS011;30184;42.018;23.670;2022-11-04T03:52:26;40.88;;;13.52;;
44480;SDS011;30184;42.018;23.670;2022-11-04T03:54:56;49.05;;;15.63;;
44480;SDS011;30184;42.018;23.670;2022-11-04T03:57:36;108.00;;;43.22;;
44480;SDS011;30184;42.018;23.670;2022-11-04T04:00:11;65.63;;;27.60;;
44480;SDS011;30184;42.018;23.670;2022-11-04T04:02:51;60.95;;;26.27;;
44480;SDS011;30184;42.018;23.670;2022-11-04T04:05:27;52.78;;;23.98;;
44480;SDS011;30184;42.018;23.670;2022-11-04T04:08:01;47.80;;;18.90;;
44480;SDS011;30184;42.018;23.670;2022-11-04T04:10:41;40.92;;;15.93;;
44480;SDS011;30184;42.018;23.670;2022-11-04T04:13:22;34.17;;;15.43;;
44480;SDS011;30184;42.018;23.670;2022-11-04T04:16:00;32.30;;;15.30;;
44480;SDS011;30184;42.018;23.670;2022-11-04T04:18:35;38.38;;;15.88;;
44480;SDS011;30184;42.018;23.670;2022-11-04T04:21:08;37.75;;;16.42;;
44480;SDS011;30184;42.018;23.670;2022-11-04T04:23:43;43.72;;;18.42;;
44480;SDS011;30184;42.018;23.670;2022-11-04T04:26:32;46.03;;;18.23;;
44480;SDS011;30184;42.018;23.670;2022-11-04T04:29:20;47.17;;;20.40;;
44480;SDS011;30184;42.018;23.670;2022-11-04T04:31:51;56.67;;;23.30;;
44480;SDS011;30184;42.018;23.670;2022-11-04T04:34:26;44.85;;;19.85;;
44480;SDS011;30184;42.018;23.670;2022-11-04T04:36:57;57.53;;;23.20;;
44480;SDS011;30184;42.018;23.670;2022-11-04T04:39:31;50.33;;;21.20;;
44480;SDS011;30184;42.018;23.670;2022-11-04T04:42:22;60.28;;;23.90;;
44480;SDS011;30184;42.018;23.670;2022-11-04T04:45:09;53.63;;;24.80;;
44480;SDS011;30184;42.018;23.670;2022-11-04T04:47:46;42.53;;;19.67;;
44480;SDS011;30184;42.018;23.670;2022-11-04T04:50:18;40.10;;;18.60;;
44480;SDS011;30184;42.018;23.670;2022-11-04T04:52:50;43.70;;;19.35;;
44480;SDS011;30184;42.018;23.670;2022-11-04T04:55:22;48.97;;;23.95;;
44480;SDS011;30184;42.018;23.670;2022-11-04T04:57:51;71.50;;;33.75;;
44480;SDS011;30184;42.018;23.670;2022-11-04T05:00:21;71.10;;;38.08;;
44480;SDS011;30184;42.018;23.670;2022-11-04T05:02:50;59.40;;;35.47;;
44480;SDS011;30184;42.018;23.670;2022-11-04T05:05:21;69.35;;;34.65;;
44480;SDS011;30184;42.018;23.670;2022-11-04T05:07:50;197.35;;;95.20;;
44480;SDS011;30184;42.018;23.670;2022-11-04T05:10:19;91.47;;;43.85;;
44480;SDS011;30184;42.018;23.670;2022-11-04T05:12:49;78.05;;;37.95;;
44480;SDS011;30184;42.018;23.670;2022-11-04T05:15:35;155.55;;;70.45;;
44480;SDS011;30184;42.018;23.670;2022-11-04T05:18:04;68.50;;;35.65;;
44480;SDS011;30184;42.018;23.670;2022-11-04T05:20:36;49.42;;;26.95;;
44480;SDS011;30184;42.018;23.670;2022-11-04T05:23:06;52.08;;;27.40;;
44480;SDS011;30184;42.018;23.670;2022-11-04T05:25:38;70.20;;;37.47;;
44480;SDS011;30184;42.018;23.670;2022-11-04T05:28:07;62.60;;;33.53;;
44480;SDS011;30184;42.018;23.670;2022-11-04T05:30:37;63.83;;;27.55;;
44480;SDS011;30184;42.018;23.670;2022-11-04T05:33:06;54.38;;;28.23;;
44480;SDS011;30184;42.018;23.670;2022-11-04T05:35:36;58.35;;;31.40;;
44480;SDS011;30184;42.018;23.670;2022-11-04T05:38:05;98.75;;;44.33;;
44480;SDS011;30184;42.018;23.670;2022-11-04T05:40:35;94.93;;;44.05;;
44480;SDS011;30184;42.018;23.670;2022-11-04T05:43:04;69.03;;;35.17;;
44480;SDS011;30184;42.018;23.670;2022-11-04T05:45:34;75.32;;;39.42;;
44480;SDS011;30184;42.018;23.670;2022-11-04T05:48:03;99.63;;;47.78;;
44480;SDS011;30184;42.018;23.670;2022-11-04T05:50:33;139.02;;;64.57;;
44480;SDS011;30184;42.018;23.670;2022-11-04T05:53:03;233.57;;;106.85;;
44480;SDS011;30184;42.018;23.670;2022-11-04T05:55:32;160.15;;;76.50;;
44480;SDS011;30184;42.018;23.670;2022-11-04T05:58:03;188.02;;;91.95;;
44480;SDS011;30184;42.018;23.670;2022-11-04T06:00:33;308.98;;;129.60;;
44480;SDS011;30184;42.018;23.670;2022-11-04T06:03:02;277.15;;;115.32;;
44480;SDS011;30184;42.018;23.670;2022-11-04T06:05:31;208.10;;;101.15;;
44480;SDS011;30184;42.018;23.670;2022-11-04T06:08:01;209.40;;;104.25;;
44480;SDS011;30184;42.018;23.670;2022-11-04T06:10:31;145.40;;;78.75;;
44480;SDS011;30184;42.018;23.670;2022-11-04T06:13:01;176.02;;;91.03;;
44480;SDS011;30184;42.018;23.670;2022-11-04T06:15:30;99.05;;;56.67;;
44480;SDS011;30184;42.018;23.670;2022-11-04T06:17:59;83.13;;;46.03;;
44480;SDS011;30184;42.018;23.670;2022-11-04T06:20:29;68.50;;;39.17;;
44480;SDS011;30184;42.018;23.670;2022-11-04T06:23:03;102.50;;;53.13;;
44480;SDS011;30184;42.018;23.670;2022-11-04T06:25:34;61.85;;;36.60;;
44480;SDS011;30184;42.018;23.670;2022-11-04T06:28:03;68.90;;;36.33;;
44480;SDS011;30184;42.018;23.670;2022-11-04T06:30:34;66.97;;;35.78;;
44480;SDS011;30184;42.018;23.670;2022-11-04T06:33:04;46.63;;;21.25;;
44480;SDS011;30184;42.018;23.670;2022-11-04T06:35:33;48.30;;;21.88;;
44480;SDS011;30184;42.018;23.670;2022-11-04T06:38:02;50.95;;;23.92;;
44480;SDS011;30184;42.018;23.670;2022-11-04T06:40:31;48.17;;;25.45;;
44480;SDS011;30184;42.018;23.670;2022-11-04T06:43:06;83.22;;;37.85;;
44480;SDS011;30184;42.018;23.670;2022-11-04T06:45:36;83.97;;;37.40;;
44480;SDS011;30184;42.018;23.670;2022-11-04T06:48:05;67.47;;;34.70;;
44480;SDS011;30184;42.018;23.670;2022-11-04T06:50:35;71.88;;;36.75;;
44480;SDS011;30184;42.018;23.670;2022-11-04T06:53:04;110.43;;;63.97;;
44480;SDS011;30184;42.018;23.670;2022-11-04T06:55:33;82.63;;;40.13;;
44480;SDS011;30184;42.018;23.670;2022-11-04T06:58:04;57.60;;;32.25;;
44480;SDS011;30184;42.018;23.670;2022-11-04T07:00:33;58.38;;;26.35;;
44480;SDS011;30184;42.018;23.670;2022-11-04T07:03:02;46.95;;;30.48;;
44480;SDS011;30184;42.018;23.670;2022-11-04T07:05:31;51.92;;;30.30;;
44480;SDS011;30184;42.018;23.670;2022-11-04T07:08:00;100.50;;;33.92;;
44480;SDS011;30184;42.018;23.670;2022-11-04T07:10:29;71.25;;;34.63;;
44480;SDS011;30184;42.018;23.670;2022-11-04T07:12:59;66.20;;;37.35;;
44480;SDS011;30184;42.018;23.670;2022-11-04T07:15:29;81.03;;;45.30;;
44480;SDS011;30184;42.018;23.670;2022-11-04T07:17:59;84.97;;;42.83;;
44480;SDS011;30184;42.018;23.670;2022-11-04T07:20:28;77.18;;;40.03;;
44480;SDS011;30184;42.018;23.670;2022-11-04T07:22:57;62.13;;;35.35;;
44480;SDS011;30184;42.018;23.670;2022-11-04T07:25:27;60.95;;;30.90;;
44480;SDS011;30184;42.018;23.670;2022-11-04T07:27:56;61.85;;;33.17;;
44480;SDS011;30184;42.018;23.670;2022-11-04T07:30:27;73.45;;;39.20;;
44480;SDS011;30184;42.018;23.670;2022-11-04T07:32:57;60.65;;;29.33;;
44480;SDS011;30184;42.018;23.670;2022-11-04T07:35:26;78.53;;;38.70;;
44480;SDS011;30184;42.018;23.670;2022-11-04T07:37:55;45.67;;;22.23;;
44480;SDS011;30184;42.018;23.670;2022-11-04T07:40:25;65.72;;;30.25;;
44480;SDS011;30184;42.018;23.670;2022-11-04T07:42:54;43.75;;;19.35;;
44480;SDS011;30184;42.018;23.670;2022-11-04T07:45:34;38.83;;;17.88;;
44480;SDS011;30184;42.018;23.670;2022-11-04T07:48:05;49.72;;;23.38;;
44480;SDS011;30184;42.018;23.670;2022-11-04T07:50:37;115.45;;;45.92;;
44480;SDS011;30184;42.018;23.670;2022-11-04T07:53:06;119.63;;;77.40;;
44480;SDS011;30184;42.018;23.670;2022-11-04T07:55:36;65.65;;;39.65;;
44480;SDS011;30184;42.018;23.670;2022-11-04T07:58:09;47.50;;;19.98;;
44480;SDS011;30184;42.018;23.670;2022-11-04T08:00:38;33.55;;;18.33;;
44480;SDS011;30184;42.018;23.670;2022-11-04T08:03:09;37.88;;;18.35;;
44480;SDS011;30184;42.018;23.670;2022-11-04T08:05:38;39.00;;;18.45;;
44480;SDS011;30184;42.018;23.670;2022-11-04T08:08:07;33.17;;;16.35;;
44480;SDS011;30184;42.018;23.670;2022-11-04T08:10:37;37.28;;;18.35;;
44480;SDS011;30184;42.018;23.670;2022-11-04T08:13:06;41.30;;;16.45;;
44480;SDS011;30184;42.018;23.670;2022-11-04T08:15:35;75.68;;;29.83;;
44480;SDS011;30184;42.018;23.670;2022-11-04T08:18:05;70.80;;;27.92;;
44480;SDS011;30184;42.018;23.670;2022-11-04T08:20:35;85.05;;;33.65;;
44480;SDS011;30184;42.018;23.670;2022-11-04T08:23:05;98.88;;;33.17;;
44480;SDS011;30184;42.018;23.670;2022-11-04T08:25:34;82.65;;;29.58;;
44480;SDS011;30184;42.018;23.670;2022-11-04T08:28:03;78.40;;;29.83;;
44480;SDS011;30184;42.018;23.670;2022-11-04T08:30:32;64.70;;;26.35;;
44480;SDS011;30184;42.018;23.670;2022-11-04T08:33:01;57.28;;;23.13;;
44480;SDS011;30184;42.018;23.670;2022-11-04T08:35:33;56.33;;;22.48;;
44480;SDS011;30184;42.018;23.670;2022-11-04T08:38:07;47.30;;;18.40;;
44480;SDS011;30184;42.018;23.670;2022-11-04T08:40:36;50.30;;;20.92;;
44480;SDS011;30184;42.018;23.670;2022-11-04T08:43:05;49.78;;;21.60;;
44480;SDS011;30184;42.018;23.670;2022-11-04T08:45:37;52.50;;;22.00;;
44480;SDS011;30184;42.018;23.670;2022-11-04T08:48:07;48.95;;;23.33;;
44480;SDS011;30184;42.018;23.670;2022-11-04T08:50:37;49.65;;;20.52;;
44480;SDS011;30184;42.018;23.670;2022-11-04T08:53:08;44.53;;;18.92;;
44480;SDS011;30184;42.018;23.670;2022-11-04T08:55:37;49.70;;;17.15;;
44480;SDS011;30184;42.018;23.670;2022-11-04T08:58:07;40.75;;;14.80;;
44480;SDS011;30184;42.018;23.670;2022-11-04T09:00:39;40.47;;;17.80;;
44480;SDS011;30184;42.018;23.670;2022-11-04T09:03:10;68.63;;;33.25;;
44480;SDS011;30184;42.018;23.670;2022-11-04T09:05:56;48.17;;;25.95;;
44480;SDS011;30184;42.018;23.670;2022-11-04T09:08:28;40.72;;;17.73;;
44480;SDS011;30184;42.018;23.670;2022-11-04T09:10:57;39.53;;;17.83;;
44480;SDS011;30184;42.018;23.670;2022-11-04T09:13:27;54.08;;;23.58;;
44480;SDS011;30184;42.018;23.670;2022-11-04T09:15:58;53.58;;;18.83;;
44480;SDS011;30184;42.018;23.670;2022-11-04T09:18:28;34.92;;;17.00;;
44480;SDS011;30184;42.018;23.670;2022-11-04T09:20:58;34.33;;;16.85;;
44480;SDS011;30184;42.018;23.670;2022-11-04T09:23:30;32.20;;;14.70;;
44480;SDS011;30184;42.018;23.670;2022-11-04T09:26:04;33.05;;;14.25;;
44480;SDS011;30184;42.018;23.670;2022-11-04T09:28:35;28.50;;;12.73;;
44480;SDS011;30184;42.018;23.670;2022-11-04T09:31:05;35.78;;;13.35;;
44480;SDS011;30184;42.018;23.670;2022-11-04T09:33:35;36.55;;;14.18;;
44480;SDS011;30184;42.018;23.670;2022-11-04T09:36:04;26.77;;;10.75;;
44480;SDS011;30184;42.018;23.670;2022-11-04T09:38:37;30.30;;;11.65;;
44480;SDS011;30184;42.018;23.670;2022-11-04T09:41:08;33.97;;;11.93;;
44480;SDS011;30184;42.018;23.670;2022-11-04T09:43:50;29.55;;;11.75;;
44480;SDS011;30184;42.018;23.670;2022-11-04T09:46:25;30.80;;;11.85;;
44480;SDS011;30184;42.018;23.670;2022-11-04T09:48:58;38.20;;;12.55;;
44480;SDS011;30184;42.018;23.670;2022-11-04T09:51:30;29.67;;;12.50;;
44480;SDS011;30184;42.018;23.670;2022-11-04T09:54:22;35.72;;;13.00;;
44480;SDS011;30184;42.018;23.670;2022-11-04T09:56:54;30.90;;;13.68;;
44480;SDS011;30184;42.018;23.670;2022-11-04T09:59:28;27.65;;;10.15;;
44480;SDS011;30184;42.018;23.670;2022-11-04T10:02:03;224.27;;;28.95;;
44480;SDS011;30184;42.018;23.670;2022-11-04T10:04:50;27.40;;;11.18;;
44480;SDS011;30184;42.018;23.670;2022-11-04T10:07:32;36.05;;;13.52;;
44480;SDS011;30184;42.018;23.670;2022-11-04T10:10:15;36.65;;;14.38;;
44480;SDS011;30184;42.018;23.670;2022-11-04T10:12:52;28.65;;;15.00;;
44480;SDS011;30184;42.018;23.670;2022-11-04T10:15:38;29.27;;;13.60;;
44480;SDS011;30184;42.018;23.670;2022-11-04T10:18:22;44.30;;;17.52;;
44480;SDS011;30184;42.018;23.670;2022-11-04T10:21:03;43.97;;;16.35;;
44480;SDS011;30184;42.018;23.670;2022-11-04T10:23:43;34.35;;;12.60;;
44480;SDS011;30184;42.018;23.670;2022-11-04T10:26:15;47.10;;;12.35;;
44480;SDS011;30184;42.018;23.670;2022-11-04T10:28:46;28.23;;;12.43;;
44480;SDS011;30184;42.018;23.670;2022-11-04T10:31:21;31.47;;;15.60;;
44480;SDS011;30184;42.018;23.670;2022-11-04T10:33:52;30.27;;;12.35;;
44480;SDS011;30184;42.018;23.670;2022-11-04T10:36:24;32.35;;;14.25;;
44480;SDS011;30184;42.018;23.670;2022-11-04T10:38:54;32.00;;;14.35;;
44480;SDS011;30184;42.018;23.670;2022-11-04T10:41:27;30.17;;;13.38;;
44480;SDS011;30184;42.018;23.670;2022-11-04T10:44:01;33.50;;;15.05;;
44480;SDS011;30184;42.018;23.670;2022-11-04T10:46:36;38.55;;;15.93;;
44480;SDS011;30184;42.018;23.670;2022-11-04T10:52:13;37.58;;;16.17;;
44480;SDS011;30184;42.018;23.670;2022-11-04T10:54:46;44.65;;;16.08;;
44480;SDS011;30184;42.018;23.670;2022-11-04T10:57:18;38.63;;;16.40;;
44480;SDS011;30184;42.018;23.670;2022-11-04T10:59:51;30.23;;;13.80;;
44480;SDS011;30184;42.018;23.670;2022-11-04T11:02:42;37.00;;;14.32;;
44480;SDS011;30184;42.018;23.670;2022-11-04T11:05:13;31.10;;;12.57;;
44480;SDS011;30184;42.018;23.670;2022-11-04T11:07:51;33.15;;;17.08;;
44480;SDS011;30184;42.018;23.670;2022-11-04T11:10:22;35.70;;;18.13;;
44480;SDS011;30184;42.018;23.670;2022-11-04T11:12:55;28.27;;;13.65;;
44480;SDS011;30184;42.018;23.670;2022-11-04T11:15:29;31.85;;;15.27;;
44480;SDS011;30184;42.018;23.670;2022-11-04T11:18:12;22.73;;;9.20;;
44480;SDS011;30184;42.018;23.670;2022-11-04T11:20:47;29.65;;;10.15;;
44480;SDS011;30184;42.018;23.670;2022-11-04T11:23:37;26.70;;;11.80;;
44480;SDS011;30184;42.018;23.670;2022-11-04T11:26:09;35.60;;;18.65;;
44480;SDS011;30184;42.018;23.670;2022-11-04T11:28:45;30.23;;;11.73;;
44480;SDS011;30184;42.018;23.670;2022-11-04T11:31:19;34.17;;;12.43;;
44480;SDS011;30184;42.018;23.670;2022-11-04T11:33:51;43.58;;;19.60;;
44480;SDS011;30184;42.018;23.670;2022-11-04T11:36:24;28.77;;;11.48;;
44480;SDS011;30184;42.018;23.670;2022-11-04T11:38:56;48.08;;;22.30;;
44480;SDS011;30184;42.018;23.670;2022-11-04T11:41:30;64.70;;;29.27;;
44480;SDS011;30184;42.018;23.670;2022-11-04T11:44:05;33.88;;;13.85;;
44480;SDS011;30184;42.018;23.670;2022-11-04T11:46:49;29.30;;;10.57;;
44480;SDS011;30184;42.018;23.670;2022-11-04T11:49:25;83.75;;;16.60;;
44480;SDS011;30184;42.018;23.670;2022-11-04T11:54:51;40.83;;;12.10;;
44480;SDS011;30184;42.018;23.670;2022-11-04T11:57:28;29.00;;;12.50;;
44480;SDS011;30184;42.018;23.670;2022-11-04T12:00:07;29.02;;;13.40;;
44480;SDS011;30184;42.018;23.670;2022-11-04T12:03:01;20.23;;;10.23;;
44480;SDS011;30184;42.018;23.670;2022-11-04T12:05:40;24.85;;;10.45;;
44480;SDS011;30184;42.018;23.670;2022-11-04T12:08:38;26.42;;;13.13;;
44480;SDS011;30184;42.018;23.670;2022-11-04T12:11:42;23.20;;;10.38;;
44480;SDS011;30184;42.018;23.670;2022-11-04T12:17:03;30.30;;;10.95;;
44480;SDS011;30184;42.018;23.670;2022-11-04T12:19:45;47.13;;;13.25;;
44480;SDS011;30184;42.018;23.670;2022-11-04T12:22:23;22.25;;;8.70;;
44480;SDS011;30184;42.018;23.670;2022-11-04T12:25:07;31.77;;;10.20;;
44480;SDS011;30184;42.018;23.670;2022-11-04T12:27:46;35.47;;;15.85;;
44480;SDS011;30184;42.018;23.670;2022-11-04T12:30:23;25.05;;;13.55;;
44480;SDS011;30184;42.018;23.670;2022-11-04T12:33:02;38.55;;;18.08;;
44480;SDS011;30184;42.018;23.670;2022-11-04T12:35:45;53.92;;;23.05;;
44480;SDS011;30184;42.018;23.670;2022-11-04T12:41:22;44.55;;;18.73;;
44480;SDS011;30184;42.018;23.670;2022-11-04T12:44:12;202.43;;;74.50;;
44480;SDS011;30184;42.018;23.670;2022-11-04T12:46:54;64.38;;;20.52;;
44480;SDS011;30184;42.018;23.670;2022-11-04T12:49:40;34.88;;;12.70;;
44480;SDS011;30184;42.018;23.670;2022-11-04T12:52:30;30.08;;;12.10;;
44480;SDS011;30184;42.018;23.670;2022-11-04T13:44:01;29.48;;;14.35;;
44480;SDS011;30184;42.018;23.670;2022-11-04T13:46:33;33.13;;;13.52;;
44480;SDS011;30184;42.018;23.670;2022-11-04T13:49:03;31.17;;;12.70;;
44480;SDS011;30184;42.018;23.670;2022-11-04T13:51:45;30.35;;;12.95;;
44480;SDS011;30184;42.018;23.670;2022-11-04T13:54:28;18.90;;;9.60;;
44480;SDS011;30184;42.018;23.670;2022-11-04T13:57:02;41.33;;;10.63;;
44480;SDS011;30184;42.018;23.670;2022-11-04T13:59:38;28.15;;;11.23;;
44480;SDS011;30184;42.018;23.670;2022-11-04T14:08:17;37.15;;;14.68;;
44480;SDS011;30184;42.018;23.670;2022-11-04T14:11:04;36.63;;;12.82;;
44480;SDS011;30184;42.018;23.670;2022-11-04T14:16:47;42.70;;;26.42;;
44480;SDS011;30184;42.018;23.670;2022-11-04T14:22:30;30.80;;;16.55;;
44480;SDS011;30184;42.018;23.670;2022-11-04T14:25:03;35.10;;;16.08;;
44480;SDS011;30184;42.018;23.670;2022-11-04T14:27:49;40.83;;;20.27;;
44480;SDS011;30184;42.018;23.670;2022-11-04T14:30:40;38.13;;;19.45;;
44480;SDS011;30184;42.018;23.670;2022-11-04T14:36:28;46.20;;;17.98;;
44480;SDS011;30184;42.018;23.670;2022-11-04T14:39:06;43.13;;;13.93;;
44480;SDS011;30184;42.018;23.670;2022-11-04T14:41:51;65.43;;;14.75;;
44480;SDS011;30184;42.018;23.670;2022-11-04T14:44:34;32.05;;;14.18;;
44480;SDS011;30184;42.018;23.670;2022-11-04T14:47:06;52.55;;;25.40;;
44480;SDS011;30184;42.018;23.670;2022-11-04T14:49:47;45.45;;;19.33;;
44480;SDS011;30184;42.018;23.670;2022-11-04T14:52:22;56.08;;;23.10;;
44480;SDS011;30184;42.018;23.670;2022-11-04T14:54:55;60.78;;;22.05;;
44480;SDS011;30184;42.018;23.670;2022-11-04T14:57:34;113.22;;;62.78;;
44480;SDS011;30184;42.018;23.670;2022-11-04T15:00:18;66.15;;;34.33;;
44480;SDS011;30184;42.018;23.670;2022-11-04T15:03:02;54.30;;;31.02;;
44480;SDS011;30184;42.018;23.670;2022-11-04T15:05:37;85.65;;;34.08;;
44480;SDS011;30184;42.018;23.670;2022-11-04T15:08:24;66.90;;;32.28;;
44480;SDS011;30184;42.018;23.670;2022-11-04T15:18:12;87.00;;;48.30;;
44480;SDS011;30184;42.018;23.670;2022-11-04T15:20:45;83.07;;;48.83;;
44480;SDS011;30184;42.018;23.670;2022-11-04T15:23:16;89.38;;;47.78;;
44480;SDS011;30184;42.018;23.670;2022-11-04T15:25:52;94.97;;;49.42;;
44480;SDS011;30184;42.018;23.670;2022-11-04T15:28:22;93.57;;;51.00;;
44480;SDS011;30184;42.018;23.670;2022-11-04T15:31:02;94.28;;;47.97;;
44480;SDS011;30184;42.018;23.670;2022-11-04T15:33:38;173.75;;;90.88;;
44480;SDS011;30184;42.018;23.670;2022-11-04T15:36:11;169.25;;;78.55;;
44480;SDS011;30184;42.018;23.670;2022-11-04T15:38:48;65.87;;;36.67;;
44480;SDS011;30184;42.018;23.670;2022-11-04T15:41:21;71.38;;;36.63;;
44480;SDS011;30184;42.018;23.670;2022-11-04T15:44:14;60.10;;;35.50;;
44480;SDS011;30184;42.018;23.670;2022-11-04T15:46:47;83.47;;;39.28;;
44480;SDS011;30184;42.018;23.670;2022-11-04T15:49:20;218.32;;;105.07;;
44480;SDS011;30184;42.018;23.670;2022-11-04T15:56:45;134.32;;;77.43;;
44480;SDS011;30184;42.018;23.670;2022-11-04T15:59:19;130.38;;;64.45;;
44480;SDS011;30184;42.018;23.670;2022-11-04T16:01:53;111.03;;;63.67;;
44480;SDS011;30184;42.018;23.670;2022-11-04T16:04:25;80.88;;;50.53;;
44480;SDS011;30184;42.018;23.670;2022-11-04T16:07:03;91.68;;;51.53;;
44480;SDS011;30184;42.018;23.670;2022-11-04T16:09:48;85.15;;;48.58;;
44480;SDS011;30184;42.018;23.670;2022-11-04T16:12:33;83.25;;;46.63;;
44480;SDS011;30184;42.018;23.670;2022-11-04T16:15:04;67.32;;;38.80;;
44480;SDS011;30184;42.018;23.670;2022-11-04T16:17:34;79.50;;;38.53;;
44480;SDS011;30184;42.018;23.670;2022-11-04T16:20:16;102.38;;;54.88;;